イスタンブル の空港の天気 - METARとTAF

アタテュルク国際空港(イスタンブル) ( LTBA / IST ) - トルコ イスタンブル
飛行場実況気象(Metar)
観測時間05/25 05:50 EET (05/25 02:50 UTC)
風向・風速北北東 4m/s
視程10km以上
天気現象
少しの雲 雲底高度 370m
全天の4割程度の雲 雲底高度 1070m
全天の8割程度の雲 雲底高度 2130m
気温20℃
湿度83%
気圧1010hPa
METARLTBA 250250Z 03007KT 9999 FEW012 SCT035 BKN070 20/17 Q1010 NOSIG RMK RWY17L 04007KT 010V080 RWY05 03007KT 350V050 RWY23 05007KT
過去の天気等 Google飛行場航空写真 Wunderground天気予報

過去48時間のMETAR

飛行場予報(TAF)
発表時間: 5/25 01:40 EET (5/24 22:40 UTC)
予報対象時間: 25日3時 EET ~ 26日9時 EET
風向・風速北北東 6m/s
視程10km以上
全天の4割程度の雲 雲底高度 910m
全天の8割程度の雲 雲底高度 2,740m
25日3時 EET ~ 25日7時 EET に一時的に
天気現象弱いしゅう雨
少しの積乱雲 雲底高度 610m
全天の8割程度の雲 雲底高度 820m
25日9時 EET から 確率 30% で
視程4,000m
天気現象弱い雷雨
少しの積乱雲 雲底高度 610m
全天の8割程度の雲 雲底高度 760m
TAF LTBA 242240Z 2500/2606 03012KT 9999 SCT030 BKN090
TEMPO 2500/2504 -SHRA FEW020CB BKN027
PROB30 2506/2510 4000 -TSRA FEW020CB BKN025